sensor_id;sensor_type;location;lat;lon;timestamp;pressure;altitude;pressure_sealevel;temperature;humidity
58245;BME280;44550;43.864;25.986;2023-03-19T00:03:47;101913.19;;;10.57;68.99
58245;BME280;44550;43.864;25.986;2023-03-19T00:07:46;101908.06;;;10.62;68.66
58245;BME280;44550;43.864;25.986;2023-03-19T00:11:45;101917.03;;;10.72;68.38
58245;BME280;44550;43.864;25.986;2023-03-19T00:15:45;101907.44;;;10.72;68.28
58245;BME280;44550;43.864;25.986;2023-03-19T00:19:46;101898.25;;;10.88;67.75
58245;BME280;44550;43.864;25.986;2023-03-19T00:23:45;101898.41;;;10.96;67.26
58245;BME280;44550;43.864;25.986;2023-03-19T00:27:45;101897.19;;;10.80;67.17
58245;BME280;44550;43.864;25.986;2023-03-19T00:31:44;101894.66;;;10.83;67.25
58245;BME280;44550;43.864;25.986;2023-03-19T00:35:45;101893.94;;;10.90;67.00
58245;BME280;44550;43.864;25.986;2023-03-19T00:39:44;101882.59;;;10.90;67.15
58245;BME280;44550;43.864;25.986;2023-03-19T00:43:44;101886.75;;;10.81;67.95
58245;BME280;44550;43.864;25.986;2023-03-19T00:47:43;101884.34;;;10.54;69.61
58245;BME280;44550;43.864;25.986;2023-03-19T00:51:44;101877.44;;;10.58;69.72
58245;BME280;44550;43.864;25.986;2023-03-19T00:55:43;101884.19;;;10.48;69.84
58245;BME280;44550;43.864;25.986;2023-03-19T00:59:43;101878.81;;;10.10;72.03
58245;BME280;44550;43.864;25.986;2023-03-19T01:03:42;101879.66;;;9.78;72.88
58245;BME280;44550;43.864;25.986;2023-03-19T01:07:44;101879.09;;;9.59;72.87
58245;BME280;44550;43.864;25.986;2023-03-19T01:11:43;101875.00;;;9.68;72.22
58245;BME280;44550;43.864;25.986;2023-03-19T01:15:43;101876.34;;;9.83;71.60
58245;BME280;44550;43.864;25.986;2023-03-19T01:19:41;101872.91;;;9.86;71.44
58245;BME280;44550;43.864;25.986;2023-03-19T01:23:43;101876.47;;;9.89;71.74
58245;BME280;44550;43.864;25.986;2023-03-19T01:27:42;101882.13;;;10.05;71.05
58245;BME280;44550;43.864;25.986;2023-03-19T01:31:43;101876.16;;;9.77;72.10
58245;BME280;44550;43.864;25.986;2023-03-19T01:35:44;101880.56;;;9.50;73.48
58245;BME280;44550;43.864;25.986;2023-03-19T01:39:46;101879.84;;;9.25;75.05
58245;BME280;44550;43.864;25.986;2023-03-19T01:43:45;101879.19;;;9.32;75.03
58245;BME280;44550;43.864;25.986;2023-03-19T01:47:44;101866.56;;;9.17;75.82
58245;BME280;44550;43.864;25.986;2023-03-19T01:51:44;101871.03;;;9.22;76.09
58245;BME280;44550;43.864;25.986;2023-03-19T01:55:47;101872.41;;;9.39;76.01
58245;BME280;44550;43.864;25.986;2023-03-19T01:59:47;101877.38;;;9.60;75.05
58245;BME280;44550;43.864;25.986;2023-03-19T02:03:49;101864.72;;;9.74;74.33
58245;BME280;44550;43.864;25.986;2023-03-19T02:07:50;101866.13;;;9.62;74.86
58245;BME280;44550;43.864;25.986;2023-03-19T02:11:52;101859.34;;;9.68;74.95
58245;BME280;44550;43.864;25.986;2023-03-19T02:15:52;101853.22;;;9.67;74.70
58245;BME280;44550;43.864;25.986;2023-03-19T02:19:53;101867.00;;;9.61;74.76
58245;BME280;44550;43.864;25.986;2023-03-19T02:23:57;101861.00;;;9.65;74.84
58245;BME280;44550;43.864;25.986;2023-03-19T02:28:02;101862.13;;;9.74;74.06
58245;BME280;44550;43.864;25.986;2023-03-19T02:32:02;101863.81;;;9.73;74.19
58245;BME280;44550;43.864;25.986;2023-03-19T02:36:01;101876.34;;;9.85;73.31
58245;BME280;44550;43.864;25.986;2023-03-19T02:40:02;101866.50;;;9.75;72.98
58245;BME280;44550;43.864;25.986;2023-03-19T02:44:05;101872.50;;;9.72;73.10
58245;BME280;44550;43.864;25.986;2023-03-19T02:48:05;101870.56;;;9.65;72.84
58245;BME280;44550;43.864;25.986;2023-03-19T02:52:04;101870.56;;;9.65;72.13
58245;BME280;44550;43.864;25.986;2023-03-19T02:56:04;101877.03;;;9.48;72.50
58245;BME280;44550;43.864;25.986;2023-03-19T03:00:06;101881.50;;;9.52;72.36
58245;BME280;44550;43.864;25.986;2023-03-19T03:04:05;101875.13;;;9.42;72.35
58245;BME280;44550;43.864;25.986;2023-03-19T03:08:05;101872.34;;;9.07;73.78
58245;BME280;44550;43.864;25.986;2023-03-19T03:12:04;101879.03;;;8.72;75.07
58245;BME280;44550;43.864;25.986;2023-03-19T03:16:06;101874.88;;;8.28;77.02
58245;BME280;44550;43.864;25.986;2023-03-19T03:20:06;101881.53;;;7.94;78.89
58245;BME280;44550;43.864;25.986;2023-03-19T03:24:07;101879.91;;;7.49;80.69
58245;BME280;44550;43.864;25.986;2023-03-19T03:28:07;101888.22;;;7.18;82.48
58245;BME280;44550;43.864;25.986;2023-03-19T03:32:08;101883.09;;;6.97;83.22
58245;BME280;44550;43.864;25.986;2023-03-19T03:36:07;101888.50;;;6.81;83.70
58245;BME280;44550;43.864;25.986;2023-03-19T03:40:21;101888.63;;;6.84;83.99
58245;BME280;44550;43.864;25.986;2023-03-19T03:44:20;101895.75;;;7.11;83.26
58245;BME280;44550;43.864;25.986;2023-03-19T03:48:21;101892.75;;;7.22;82.38
58245;BME280;44550;43.864;25.986;2023-03-19T03:52:20;101892.19;;;7.31;81.77
58245;BME280;44550;43.864;25.986;2023-03-19T03:56:19;101902.16;;;7.19;82.53
58245;BME280;44550;43.864;25.986;2023-03-19T04:00:18;101902.91;;;6.73;84.63
58245;BME280;44550;43.864;25.986;2023-03-19T04:04:20;101892.50;;;6.52;85.49
58245;BME280;44550;43.864;25.986;2023-03-19T04:08:19;101898.97;;;6.41;86.79
58245;BME280;44550;43.864;25.986;2023-03-19T04:12:19;101893.47;;;6.54;86.49
58245;BME280;44550;43.864;25.986;2023-03-19T04:16:18;101903.44;;;6.45;87.01
58245;BME280;44550;43.864;25.986;2023-03-19T04:20:20;101912.56;;;6.35;87.58
58245;BME280;44550;43.864;25.986;2023-03-19T04:24:21;101909.66;;;6.48;87.43
58245;BME280;44550;43.864;25.986;2023-03-19T04:28:29;101922.34;;;6.41;87.26
58245;BME280;44550;43.864;25.986;2023-03-19T04:32:30;101920.34;;;6.14;88.94
58245;BME280;44550;43.864;25.986;2023-03-19T04:40:57;101927.38;;;5.97;90.59
58245;BME280;44550;43.864;25.986;2023-03-19T04:44:57;101922.56;;;5.87;91.87
58245;BME280;44550;43.864;25.986;2023-03-19T04:49:03;101923.63;;;6.10;91.13
58245;BME280;44550;43.864;25.986;2023-03-19T04:53:02;101925.19;;;6.06;91.45
58245;BME280;44550;43.864;25.986;2023-03-19T04:57:06;101929.00;;;5.95;92.76
58245;BME280;44550;43.864;25.986;2023-03-19T05:06:18;101926.72;;;6.22;92.45
58245;BME280;44550;43.864;25.986;2023-03-19T05:10:36;101921.38;;;6.39;91.60
58245;BME280;44550;43.864;25.986;2023-03-19T05:14:55;101915.22;;;6.56;91.36
58245;BME280;44550;43.864;25.986;2023-03-19T05:23:37;101921.75;;;7.11;88.23
58245;BME280;44550;43.864;25.986;2023-03-19T05:27:39;101915.38;;;7.25;87.10
58245;BME280;44550;43.864;25.986;2023-03-19T05:31:41;101919.00;;;7.28;86.51
58245;BME280;44550;43.864;25.986;2023-03-19T05:35:41;101915.34;;;7.23;86.51
58245;BME280;44550;43.864;25.986;2023-03-19T05:39:42;101919.78;;;7.05;87.59
58245;BME280;44550;43.864;25.986;2023-03-19T05:43:42;101916.22;;;7.46;86.54
58245;BME280;44550;43.864;25.986;2023-03-19T05:47:47;101928.50;;;7.73;85.01
58245;BME280;44550;43.864;25.986;2023-03-19T05:51:47;101922.91;;;8.10;82.76
58245;BME280;44550;43.864;25.986;2023-03-19T05:55:48;101924.44;;;8.53;80.76
58245;BME280;44550;43.864;25.986;2023-03-19T05:59:51;101916.19;;;8.65;80.09
58245;BME280;44550;43.864;25.986;2023-03-19T06:04:00;101922.94;;;8.85;78.61
58245;BME280;44550;43.864;25.986;2023-03-19T06:08:10;101919.13;;;8.76;77.89
58245;BME280;44550;43.864;25.986;2023-03-19T06:12:12;101924.75;;;8.88;77.57
58245;BME280;44550;43.864;25.986;2023-03-19T06:16:15;101927.47;;;9.18;78.35
58245;BME280;44550;43.864;25.986;2023-03-19T06:20:25;101922.91;;;9.39;77.50
58245;BME280;44550;43.864;25.986;2023-03-19T06:24:29;101930.41;;;9.57;77.22
58245;BME280;44550;43.864;25.986;2023-03-19T06:28:29;101933.47;;;9.15;78.65
58245;BME280;44550;43.864;25.986;2023-03-19T06:32:32;101931.28;;;8.75;81.27
58245;BME280;44550;43.864;25.986;2023-03-19T06:36:38;101936.56;;;9.04;80.35
58245;BME280;44550;43.864;25.986;2023-03-19T06:40:38;101929.47;;;8.73;80.79
58245;BME280;44550;43.864;25.986;2023-03-19T06:44:45;101933.06;;;8.27;82.68
58245;BME280;44550;43.864;25.986;2023-03-19T06:48:49;101940.03;;;8.28;83.72
58245;BME280;44550;43.864;25.986;2023-03-19T06:52:52;101946.44;;;8.37;81.99
58245;BME280;44550;43.864;25.986;2023-03-19T06:56:54;101940.94;;;8.78;80.90
58245;BME280;44550;43.864;25.986;2023-03-19T07:00:52;101943.25;;;9.23;78.37
58245;BME280;44550;43.864;25.986;2023-03-19T07:04:52;101940.44;;;9.16;76.58
58245;BME280;44550;43.864;25.986;2023-03-19T07:08:53;101941.34;;;9.44;75.53
58245;BME280;44550;43.864;25.986;2023-03-19T07:12:53;101944.19;;;9.25;74.38
58245;BME280;44550;43.864;25.986;2023-03-19T07:16:52;101938.91;;;10.10;73.10
58245;BME280;44550;43.864;25.986;2023-03-19T07:20:53;101935.88;;;10.58;71.04
58245;BME280;44550;43.864;25.986;2023-03-19T07:24:56;101941.81;;;10.86;68.58
58245;BME280;44550;43.864;25.986;2023-03-19T07:29:02;101950.72;;;10.94;67.90
58245;BME280;44550;43.864;25.986;2023-03-19T07:33:02;101944.69;;;11.33;66.47
58245;BME280;44550;43.864;25.986;2023-03-19T07:37:03;101945.28;;;11.59;65.68
58245;BME280;44550;43.864;25.986;2023-03-19T07:41:08;101948.25;;;11.76;65.56
58245;BME280;44550;43.864;25.986;2023-03-19T07:45:08;101938.66;;;12.66;62.02
58245;BME280;44550;43.864;25.986;2023-03-19T07:49:08;101944.78;;;12.66;61.75
58245;BME280;44550;43.864;25.986;2023-03-19T07:53:07;101938.06;;;12.82;60.58
58245;BME280;44550;43.864;25.986;2023-03-19T07:57:09;101933.75;;;12.87;60.15
58245;BME280;44550;43.864;25.986;2023-03-19T08:01:09;101936.69;;;12.07;62.67
58245;BME280;44550;43.864;25.986;2023-03-19T08:05:09;101929.81;;;12.12;62.71
58245;BME280;44550;43.864;25.986;2023-03-19T08:09:10;101924.78;;;12.23;62.42
58245;BME280;44550;43.864;25.986;2023-03-19T08:13:12;101921.34;;;12.27;62.72
58245;BME280;44550;43.864;25.986;2023-03-19T08:17:12;101919.38;;;11.73;64.13
58245;BME280;44550;43.864;25.986;2023-03-19T08:21:11;101915.75;;;11.68;64.44
58245;BME280;44550;43.864;25.986;2023-03-19T08:25:14;101909.59;;;12.07;63.86
58245;BME280;44550;43.864;25.986;2023-03-19T08:29:19;101910.56;;;11.69;64.00
58245;BME280;44550;43.864;25.986;2023-03-19T08:33:18;101902.97;;;11.83;63.90
58245;BME280;44550;43.864;25.986;2023-03-19T08:37:17;101905.06;;;11.57;64.97
58245;BME280;44550;43.864;25.986;2023-03-19T08:41:17;101900.09;;;11.71;63.46
58245;BME280;44550;43.864;25.986;2023-03-19T08:45:24;101903.81;;;11.02;66.16
58245;BME280;44550;43.864;25.986;2023-03-19T08:49:23;101894.50;;;11.15;65.20
58245;BME280;44550;43.864;25.986;2023-03-19T08:53:24;101891.00;;;11.53;63.24
58245;BME280;44550;43.864;25.986;2023-03-19T08:57:24;101889.56;;;11.28;64.61
58245;BME280;44550;43.864;25.986;2023-03-19T09:01:28;101883.44;;;11.67;62.15
58245;BME280;44550;43.864;25.986;2023-03-19T09:05:27;101880.13;;;12.21;61.23
58245;BME280;44550;43.864;25.986;2023-03-19T09:09:35;101880.56;;;11.97;60.84
58245;BME280;44550;43.864;25.986;2023-03-19T09:13:36;101874.75;;;12.64;58.97
58245;BME280;44550;43.864;25.986;2023-03-19T09:17:37;101861.41;;;13.05;57.70
58245;BME280;44550;43.864;25.986;2023-03-19T09:21:37;101870.94;;;12.43;58.56
58245;BME280;44550;43.864;25.986;2023-03-19T09:25:43;101860.69;;;13.15;55.88
58245;BME280;44550;43.864;25.986;2023-03-19T09:29:45;101860.91;;;13.29;54.64
58245;BME280;44550;43.864;25.986;2023-03-19T09:33:50;101855.53;;;13.21;55.78
58245;BME280;44550;43.864;25.986;2023-03-19T09:37:49;101856.28;;;13.12;56.76
58245;BME280;44550;43.864;25.986;2023-03-19T09:41:56;101853.31;;;12.89;58.25
58245;BME280;44550;43.864;25.986;2023-03-19T09:46:00;101860.09;;;13.33;57.84
58245;BME280;44550;43.864;25.986;2023-03-19T09:50:05;101860.50;;;13.65;57.17
58245;BME280;44550;43.864;25.986;2023-03-19T09:54:07;101851.53;;;13.49;56.93
58245;BME280;44550;43.864;25.986;2023-03-19T09:58:14;101837.31;;;14.09;55.36
58245;BME280;44550;43.864;25.986;2023-03-19T10:02:23;101824.47;;;14.43;54.07
58245;BME280;44550;43.864;25.986;2023-03-19T10:06:27;101820.22;;;14.56;53.23
58245;BME280;44550;43.864;25.986;2023-03-19T10:10:35;101825.22;;;14.28;53.49
58245;BME280;44550;43.864;25.986;2023-03-19T10:14:42;101824.03;;;13.96;54.13
58245;BME280;44550;43.864;25.986;2023-03-19T10:18:46;101816.25;;;14.06;54.64
58245;BME280;44550;43.864;25.986;2023-03-19T10:22:52;101814.53;;;14.08;54.50
58245;BME280;44550;43.864;25.986;2023-03-19T10:26:55;101811.78;;;13.98;54.34
58245;BME280;44550;43.864;25.986;2023-03-19T10:30:59;101810.81;;;13.90;54.30
58245;BME280;44550;43.864;25.986;2023-03-19T10:35:01;101796.94;;;14.06;53.36
58245;BME280;44550;43.864;25.986;2023-03-19T10:39:05;101797.00;;;14.07;53.92
58245;BME280;44550;43.864;25.986;2023-03-19T10:43:05;101785.81;;;14.36;53.24
58245;BME280;44550;43.864;25.986;2023-03-19T10:47:12;101783.13;;;14.28;53.33
58245;BME280;44550;43.864;25.986;2023-03-19T10:51:12;101769.19;;;14.39;53.12
58245;BME280;44550;43.864;25.986;2023-03-19T10:55:15;101764.84;;;14.45;52.41
58245;BME280;44550;43.864;25.986;2023-03-19T10:59:23;101761.88;;;14.05;52.79
58245;BME280;44550;43.864;25.986;2023-03-19T11:03:28;101751.88;;;14.73;51.35
58245;BME280;44550;43.864;25.986;2023-03-19T11:07:27;101744.94;;;14.81;50.91
58245;BME280;44550;43.864;25.986;2023-03-19T11:11:36;101742.44;;;15.10;49.50
58245;BME280;44550;43.864;25.986;2023-03-19T11:15:40;101739.84;;;15.25;48.45
58245;BME280;44550;43.864;25.986;2023-03-19T11:19:40;101737.13;;;15.01;49.46
58245;BME280;44550;43.864;25.986;2023-03-19T11:23:40;101730.94;;;14.96;49.97
58245;BME280;44550;43.864;25.986;2023-03-19T11:27:45;101722.22;;;15.08;49.28
58245;BME280;44550;43.864;25.986;2023-03-19T11:31:59;101722.28;;;15.29;47.55
58245;BME280;44550;43.864;25.986;2023-03-19T11:36:17;101717.03;;;15.29;48.17
58245;BME280;44550;43.864;25.986;2023-03-19T11:40:20;101704.69;;;15.19;48.60
58245;BME280;44550;43.864;25.986;2023-03-19T11:44:25;101703.84;;;15.27;48.58
58245;BME280;44550;43.864;25.986;2023-03-19T11:48:30;101704.72;;;15.22;48.24
58245;BME280;44550;43.864;25.986;2023-03-19T11:52:34;101699.47;;;15.34;48.56
58245;BME280;44550;43.864;25.986;2023-03-19T11:56:45;101692.47;;;15.48;47.99
58245;BME280;44550;43.864;25.986;2023-03-19T12:00:49;101686.22;;;15.13;47.91
58245;BME280;44550;43.864;25.986;2023-03-19T12:05:00;101677.63;;;15.83;47.13
58245;BME280;44550;43.864;25.986;2023-03-19T12:09:03;101667.88;;;15.49;45.04
58245;BME280;44550;43.864;25.986;2023-03-19T12:13:11;101670.50;;;15.51;45.92
58245;BME280;44550;43.864;25.986;2023-03-19T12:17:20;101661.72;;;15.55;45.11
58245;BME280;44550;43.864;25.986;2023-03-19T12:21:27;101659.09;;;15.47;45.50
58245;BME280;44550;43.864;25.986;2023-03-19T12:25:33;101652.09;;;15.85;45.66
58245;BME280;44550;43.864;25.986;2023-03-19T12:29:37;101645.94;;;15.60;45.10
58245;BME280;44550;43.864;25.986;2023-03-19T12:33:43;101652.13;;;15.86;43.63
58245;BME280;44550;43.864;25.986;2023-03-19T12:37:45;101640.69;;;15.90;43.73
58245;BME280;44550;43.864;25.986;2023-03-19T12:41:49;101630.09;;;16.09;43.46
58245;BME280;44550;43.864;25.986;2023-03-19T12:45:49;101623.94;;;16.20;41.91
58245;BME280;44550;43.864;25.986;2023-03-19T12:49:57;101611.63;;;16.10;42.11
58245;BME280;44550;43.864;25.986;2023-03-19T12:53:58;101615.19;;;16.00;42.29
58245;BME280;44550;43.864;25.986;2023-03-19T12:58:02;101605.31;;;16.60;41.36
58245;BME280;44550;43.864;25.986;2023-03-19T13:02:02;101601.75;;;16.72;42.03
58245;BME280;44550;43.864;25.986;2023-03-19T13:06:11;101596.31;;;17.04;42.19
58245;BME280;44550;43.864;25.986;2023-03-19T13:10:15;101592.16;;;16.56;41.59
58245;BME280;44550;43.864;25.986;2023-03-19T13:14:17;101588.66;;;16.46;42.52
58245;BME280;44550;43.864;25.986;2023-03-19T13:18:20;101589.53;;;16.47;41.64
58245;BME280;44550;43.864;25.986;2023-03-19T13:22:30;101592.06;;;16.70;41.68
58245;BME280;44550;43.864;25.986;2023-03-19T13:26:32;101581.34;;;17.02;40.36
58245;BME280;44550;43.864;25.986;2023-03-19T13:30:32;101574.03;;;17.41;40.23
58245;BME280;44550;43.864;25.986;2023-03-19T13:34:35;101566.34;;;17.10;41.47
58245;BME280;44550;43.864;25.986;2023-03-19T13:38:39;101560.69;;;17.56;39.99
58245;BME280;44550;43.864;25.986;2023-03-19T13:42:39;101559.16;;;17.29;39.97
58245;BME280;44550;43.864;25.986;2023-03-19T13:46:41;101557.41;;;17.22;40.47
58245;BME280;44550;43.864;25.986;2023-03-19T13:50:49;101548.47;;;17.38;40.50
58245;BME280;44550;43.864;25.986;2023-03-19T13:54:54;101538.78;;;17.40;40.01
58245;BME280;44550;43.864;25.986;2023-03-19T13:59:20;101523.47;;;17.77;39.20
58245;BME280;44550;43.864;25.986;2023-03-19T14:03:21;101517.03;;;18.03;38.74
58245;BME280;44550;43.864;25.986;2023-03-19T14:07:23;101516.53;;;17.63;39.64
58245;BME280;44550;43.864;25.986;2023-03-19T14:11:27;101516.72;;;17.41;40.13
58245;BME280;44550;43.864;25.986;2023-03-19T14:15:27;101507.16;;;17.29;39.73
58245;BME280;44550;43.864;25.986;2023-03-19T14:19:26;101503.81;;;17.07;40.42
58245;BME280;44550;43.864;25.986;2023-03-19T14:23:29;101501.94;;;17.20;40.61
58245;BME280;44550;43.864;25.986;2023-03-19T14:27:40;101494.91;;;17.19;40.09
58245;BME280;44550;43.864;25.986;2023-03-19T14:31:42;101510.84;;;17.10;40.66
58245;BME280;44550;43.864;25.986;2023-03-19T14:35:45;101500.41;;;16.91;40.51
58245;BME280;44550;43.864;25.986;2023-03-19T14:39:45;101498.53;;;17.06;40.79
58245;BME280;44550;43.864;25.986;2023-03-19T14:48:11;101502.84;;;17.14;40.73
58245;BME280;44550;43.864;25.986;2023-03-19T14:52:13;101494.97;;;17.08;40.58
58245;BME280;44550;43.864;25.986;2023-03-19T14:56:15;101500.25;;;17.08;40.38
58245;BME280;44550;43.864;25.986;2023-03-19T15:00:15;101498.59;;;17.00;40.88
58245;BME280;44550;43.864;25.986;2023-03-19T15:04:19;101496.75;;;17.09;40.18
58245;BME280;44550;43.864;25.986;2023-03-19T15:08:20;101492.44;;;16.95;41.11
58245;BME280;44550;43.864;25.986;2023-03-19T15:12:27;101495.19;;;16.85;41.29
58245;BME280;44550;43.864;25.986;2023-03-19T15:16:31;101495.91;;;17.01;41.01
58245;BME280;44550;43.864;25.986;2023-03-19T15:20:36;101496.00;;;16.92;41.15
58245;BME280;44550;43.864;25.986;2023-03-19T15:24:37;101503.03;;;16.93;41.04
58245;BME280;44550;43.864;25.986;2023-03-19T15:28:43;101493.31;;;17.00;40.96
58245;BME280;44550;43.864;25.986;2023-03-19T15:32:54;101502.97;;;17.05;41.06
58245;BME280;44550;43.864;25.986;2023-03-19T15:37:12;101501.88;;;17.28;40.28
58245;BME280;44550;43.864;25.986;2023-03-19T15:41:14;101497.28;;;17.50;39.93
58245;BME280;44550;43.864;25.986;2023-03-19T15:45:14;101492.63;;;17.75;39.42
58245;BME280;44550;43.864;25.986;2023-03-19T15:49:16;101507.63;;;17.71;39.20
58245;BME280;44550;43.864;25.986;2023-03-19T15:53:21;101498.78;;;17.78;39.35
58245;BME280;44550;43.864;25.986;2023-03-19T15:57:23;101493.38;;;17.89;39.05
58245;BME280;44550;43.864;25.986;2023-03-19T16:01:28;101492.38;;;17.99;38.54
58245;BME280;44550;43.864;25.986;2023-03-19T16:05:29;101494.97;;;18.02;38.73
58245;BME280;44550;43.864;25.986;2023-03-19T16:09:32;101490.84;;;17.75;39.87
58245;BME280;44550;43.864;25.986;2023-03-19T16:13:36;101500.97;;;17.32;41.23
58245;BME280;44550;43.864;25.986;2023-03-19T16:17:36;101506.63;;;16.86;42.35
58245;BME280;44550;43.864;25.986;2023-03-19T16:21:39;101507.66;;;16.54;43.68
58245;BME280;44550;43.864;25.986;2023-03-19T16:25:42;101510.47;;;16.20;44.53
58245;BME280;44550;43.864;25.986;2023-03-19T16:29:42;101506.16;;;15.89;45.64
58245;BME280;44550;43.864;25.986;2023-03-19T16:33:43;101497.41;;;15.51;46.73
58245;BME280;44550;43.864;25.986;2023-03-19T16:37:43;101515.88;;;15.71;46.97
58245;BME280;44550;43.864;25.986;2023-03-19T16:41:46;101519.38;;;15.72;47.02
58245;BME280;44550;43.864;25.986;2023-03-19T16:46:02;101525.53;;;15.49;47.04
58245;BME280;44550;43.864;25.986;2023-03-19T16:50:07;101529.09;;;15.33;47.76
58245;BME280;44550;43.864;25.986;2023-03-19T16:54:08;101525.56;;;15.23;47.67
58245;BME280;44550;43.864;25.986;2023-03-19T16:58:13;101517.63;;;15.19;48.59
58245;BME280;44550;43.864;25.986;2023-03-19T17:02:15;101524.66;;;15.03;48.88
58245;BME280;44550;43.864;25.986;2023-03-19T17:06:20;101527.28;;;14.91;49.26
58245;BME280;44550;43.864;25.986;2023-03-19T17:10:31;101532.53;;;14.74;49.61
58245;BME280;44550;43.864;25.986;2023-03-19T17:14:37;101528.06;;;14.56;49.58
58245;BME280;44550;43.864;25.986;2023-03-19T17:18:37;101523.69;;;14.63;50.21
58245;BME280;44550;43.864;25.986;2023-03-19T17:22:38;101521.97;;;14.71;50.11
58245;BME280;44550;43.864;25.986;2023-03-19T17:26:40;101525.44;;;14.59;50.29
58245;BME280;44550;43.864;25.986;2023-03-19T17:30:44;101529.66;;;14.22;51.98
58245;BME280;44550;43.864;25.986;2023-03-19T17:34:59;101526.91;;;13.94;52.41
58245;BME280;44550;43.864;25.986;2023-03-19T17:38:59;101530.34;;;13.87;52.86
58245;BME280;44550;43.864;25.986;2023-03-19T17:43:08;101533.78;;;13.74;53.39
58245;BME280;44550;43.864;25.986;2023-03-19T17:47:14;101537.13;;;13.50;54.15
58245;BME280;44550;43.864;25.986;2023-03-19T17:51:14;101538.50;;;13.09;56.23
58245;BME280;44550;43.864;25.986;2023-03-19T17:55:14;101542.59;;;12.80;57.72
58245;BME280;44550;43.864;25.986;2023-03-19T17:59:14;101543.97;;;12.45;59.20
58245;BME280;44550;43.864;25.986;2023-03-19T18:03:27;101543.78;;;12.33;59.83
58245;BME280;44550;43.864;25.986;2023-03-19T18:07:41;101540.22;;;12.25;59.57
58245;BME280;44550;43.864;25.986;2023-03-19T18:11:40;101548.13;;;12.30;59.98
58245;BME280;44550;43.864;25.986;2023-03-19T18:15:42;101541.97;;;12.28;60.12
58245;BME280;44550;43.864;25.986;2023-03-19T18:19:46;101542.44;;;11.96;60.96
58245;BME280;44550;43.864;25.986;2023-03-19T18:23:48;101539.66;;;11.85;61.44
58245;BME280;44550;43.864;25.986;2023-03-19T18:27:47;101542.22;;;11.82;61.58
58245;BME280;44550;43.864;25.986;2023-03-19T18:31:47;101544.38;;;12.09;60.94
58245;BME280;44550;43.864;25.986;2023-03-19T18:36:00;101540.00;;;12.11;60.88
58245;BME280;44550;43.864;25.986;2023-03-19T18:40:01;101532.88;;;11.99;61.17
58245;BME280;44550;43.864;25.986;2023-03-19T18:44:01;101531.13;;;12.02;60.65
58245;BME280;44550;43.864;25.986;2023-03-19T18:48:00;101530.34;;;12.06;60.55
58245;BME280;44550;43.864;25.986;2023-03-19T18:52:04;101533.72;;;11.98;60.29
58245;BME280;44550;43.864;25.986;2023-03-19T18:56:09;101524.34;;;11.57;61.63
58245;BME280;44550;43.864;25.986;2023-03-19T19:00:14;101514.19;;;11.22;62.49
58245;BME280;44550;43.864;25.986;2023-03-19T19:04:15;101522.91;;;11.22;62.72
58245;BME280;44550;43.864;25.986;2023-03-19T19:08:18;101527.75;;;11.51;61.87
58245;BME280;44550;43.864;25.986;2023-03-19T19:12:19;101532.66;;;11.84;60.62
58245;BME280;44550;43.864;25.986;2023-03-19T19:16:20;101539.88;;;11.99;60.21
58245;BME280;44550;43.864;25.986;2023-03-19T19:20:24;101535.91;;;11.69;60.31
58245;BME280;44550;43.864;25.986;2023-03-19T19:24:28;101540.59;;;11.34;61.45
58245;BME280;44550;43.864;25.986;2023-03-19T19:28:28;101540.94;;;11.04;63.00
58245;BME280;44550;43.864;25.986;2023-03-19T19:32:31;101536.41;;;10.95;64.22
58245;BME280;44550;43.864;25.986;2023-03-19T19:36:32;101532.31;;;10.61;66.34
58245;BME280;44550;43.864;25.986;2023-03-19T19:40:33;101541.69;;;10.51;67.18
58245;BME280;44550;43.864;25.986;2023-03-19T19:44:33;101522.44;;;10.48;66.69
58245;BME280;44550;43.864;25.986;2023-03-19T19:48:32;101542.44;;;10.46;66.93
58245;BME280;44550;43.864;25.986;2023-03-19T19:52:32;101534.88;;;10.19;68.24
58245;BME280;44550;43.864;25.986;2023-03-19T19:56:33;101538.06;;;10.04;68.62
58245;BME280;44550;43.864;25.986;2023-03-19T20:00:40;101538.72;;;9.94;69.68
58245;BME280;44550;43.864;25.986;2023-03-19T20:04:59;101537.81;;;9.93;69.69
58245;BME280;44550;43.864;25.986;2023-03-19T20:09:01;101537.78;;;9.90;69.90
58245;BME280;44550;43.864;25.986;2023-03-19T20:13:06;101547.28;;;9.88;69.94
58245;BME280;44550;43.864;25.986;2023-03-19T20:17:12;101539.09;;;10.10;69.03
58245;BME280;44550;43.864;25.986;2023-03-19T20:21:15;101540.75;;;10.48;67.81
58245;BME280;44550;43.864;25.986;2023-03-19T20:25:22;101549.13;;;10.74;66.59
58245;BME280;44550;43.864;25.986;2023-03-19T20:29:29;101546.09;;;10.99;65.55
58245;BME280;44550;43.864;25.986;2023-03-19T20:33:31;101546.66;;;11.32;64.66
58245;BME280;44550;43.864;25.986;2023-03-19T20:37:30;101554.88;;;11.55;63.52
58245;BME280;44550;43.864;25.986;2023-03-19T20:41:30;101548.53;;;11.40;64.41
58245;BME280;44550;43.864;25.986;2023-03-19T20:45:36;101550.28;;;11.40;67.16
58245;BME280;44550;43.864;25.986;2023-03-19T20:49:39;101548.13;;;11.70;67.58
58245;BME280;44550;43.864;25.986;2023-03-19T20:53:39;101547.13;;;11.61;67.49
58245;BME280;44550;43.864;25.986;2023-03-19T20:57:38;101546.97;;;11.51;67.13
58245;BME280;44550;43.864;25.986;2023-03-19T21:01:40;101545.59;;;11.20;68.03
58245;BME280;44550;43.864;25.986;2023-03-19T21:05:39;101549.66;;;11.04;68.53
58245;BME280;44550;43.864;25.986;2023-03-19T21:09:38;101544.19;;;10.92;69.34
58245;BME280;44550;43.864;25.986;2023-03-19T21:13:41;101550.91;;;10.76;70.24
58245;BME280;44550;43.864;25.986;2023-03-19T21:17:45;101555.28;;;10.33;72.29